sensor_id;sensor_type;location;lat;lon;timestamp;pressure;altitude;pressure_sealevel;temperature;humidity
69855;BME280;57146;48.140;16.304;2023-03-01T00:01:55;100438.88;;;-2.09;78.85
69855;BME280;57146;48.140;16.304;2023-03-01T00:04:22;100434.56;;;-2.02;78.48
69855;BME280;57146;48.140;16.304;2023-03-01T00:06:49;100448.09;;;-1.94;77.80
69855;BME280;57146;48.140;16.304;2023-03-01T00:09:20;100444.09;;;-2.03;77.66
69855;BME280;57146;48.140;16.304;2023-03-01T00:11:49;100435.03;;;-1.92;77.44
69855;BME280;57146;48.140;16.304;2023-03-01T00:15:05;100442.34;;;-1.89;76.56
69855;BME280;57146;48.140;16.304;2023-03-01T00:17:34;100435.78;;;-1.98;77.31
69855;BME280;57146;48.140;16.304;2023-03-01T00:20:01;100433.13;;;-1.77;76.92
69855;BME280;57146;48.140;16.304;2023-03-01T00:22:28;100418.09;;;-1.66;76.53
69855;BME280;57146;48.140;16.304;2023-03-01T00:24:55;100419.28;;;-1.62;75.91
69855;BME280;57146;48.140;16.304;2023-03-01T00:27:22;100430.41;;;-1.62;76.09
69855;BME280;57146;48.140;16.304;2023-03-01T00:29:50;100435.78;;;-1.63;76.13
69855;BME280;57146;48.140;16.304;2023-03-01T00:32:20;100431.38;;;-1.70;76.18
69855;BME280;57146;48.140;16.304;2023-03-01T00:34:47;100428.53;;;-1.75;75.97
69855;BME280;57146;48.140;16.304;2023-03-01T00:37:16;100429.88;;;-1.85;76.81
69855;BME280;57146;48.140;16.304;2023-03-01T00:39:43;100426.47;;;-1.93;76.65
69855;BME280;57146;48.140;16.304;2023-03-01T00:42:10;100422.91;;;-1.91;77.02
69855;BME280;57146;48.140;16.304;2023-03-01T00:44:37;100419.72;;;-1.94;76.24
69855;BME280;57146;48.140;16.304;2023-03-01T00:47:04;100422.13;;;-1.92;76.77
69855;BME280;57146;48.140;16.304;2023-03-01T00:49:31;100410.75;;;-1.98;76.45
69855;BME280;57146;48.140;16.304;2023-03-01T00:51:58;100405.75;;;-2.06;76.97
69855;BME280;57146;48.140;16.304;2023-03-01T00:54:29;100413.28;;;-2.04;77.11
69855;BME280;57146;48.140;16.304;2023-03-01T00:56:58;100407.66;;;-2.14;77.15
69855;BME280;57146;48.140;16.304;2023-03-01T00:59:27;100409.81;;;-2.18;76.99
69855;BME280;57146;48.140;16.304;2023-03-01T01:01:54;100402.44;;;-2.21;77.28
69855;BME280;57146;48.140;16.304;2023-03-01T01:04:21;100405.28;;;-2.16;76.88
69855;BME280;57146;48.140;16.304;2023-03-01T01:06:49;100407.44;;;-2.20;77.44
69855;BME280;57146;48.140;16.304;2023-03-01T01:09:17;100405.41;;;-2.24;78.19
69855;BME280;57146;48.140;16.304;2023-03-01T01:11:49;100408.38;;;-2.27;78.65
69855;BME280;57146;48.140;16.304;2023-03-01T01:14:17;100406.81;;;-2.22;77.44
69855;BME280;57146;48.140;16.304;2023-03-01T01:16:44;100409.44;;;-2.15;77.44
69855;BME280;57146;48.140;16.304;2023-03-01T01:19:13;100406.44;;;-2.19;77.43
69855;BME280;57146;48.140;16.304;2023-03-01T01:21:41;100403.66;;;-2.24;78.34
69855;BME280;57146;48.140;16.304;2023-03-01T01:24:09;100399.09;;;-2.22;77.98
69855;BME280;57146;48.140;16.304;2023-03-01T01:26:36;100395.81;;;-2.37;78.73
69855;BME280;57146;48.140;16.304;2023-03-01T01:29:05;100391.06;;;-2.33;79.29
69855;BME280;57146;48.140;16.304;2023-03-01T01:31:34;100387.34;;;-2.31;78.85
69855;BME280;57146;48.140;16.304;2023-03-01T01:34:04;100390.91;;;-2.25;78.56
69855;BME280;57146;48.140;16.304;2023-03-01T01:36:32;100380.22;;;-2.22;79.09
69855;BME280;57146;48.140;16.304;2023-03-01T01:39:00;100385.81;;;-2.19;78.92
69855;BME280;57146;48.140;16.304;2023-03-01T01:41:28;100385.81;;;-2.19;78.99
69855;BME280;57146;48.140;16.304;2023-03-01T01:44:20;100383.69;;;-2.08;79.17
69855;BME280;57146;48.140;16.304;2023-03-01T01:49:46;100377.41;;;-1.99;79.00
69855;BME280;57146;48.140;16.304;2023-03-01T01:52:31;100371.47;;;-1.93;78.53
69855;BME280;57146;48.140;16.304;2023-03-01T02:00:06;100370.72;;;-1.87;79.34
69855;BME280;57146;48.140;16.304;2023-03-01T02:02:39;100372.25;;;-1.93;79.14
69855;BME280;57146;48.140;16.304;2023-03-01T02:05:20;100372.25;;;-1.99;79.32
69855;BME280;57146;48.140;16.304;2023-03-01T02:07:53;100369.91;;;-1.87;79.13
69855;BME280;57146;48.140;16.304;2023-03-01T02:10:23;100361.97;;;-1.86;80.34
69855;BME280;57146;48.140;16.304;2023-03-01T02:12:51;100370.34;;;-1.84;78.87
69855;BME280;57146;48.140;16.304;2023-03-01T02:15:45;100367.38;;;-1.81;79.22
69855;BME280;57146;48.140;16.304;2023-03-01T02:18:17;100374.75;;;-1.78;79.29
69855;BME280;57146;48.140;16.304;2023-03-01T02:21:35;100368.78;;;-1.72;79.50
69855;BME280;57146;48.140;16.304;2023-03-01T02:23:42;100364.63;;;-1.73;79.86
69855;BME280;57146;48.140;16.304;2023-03-01T02:26:23;100360.25;;;-1.72;79.51
69855;BME280;57146;48.140;16.304;2023-03-01T02:28:52;100354.75;;;-1.62;78.49
69855;BME280;57146;48.140;16.304;2023-03-01T02:31:20;100353.56;;;-1.60;79.06
69855;BME280;57146;48.140;16.304;2023-03-01T02:33:48;100353.31;;;-1.72;80.08
69855;BME280;57146;48.140;16.304;2023-03-01T02:36:57;100341.22;;;-1.64;80.29
69855;BME280;57146;48.140;16.304;2023-03-01T02:39:32;100346.41;;;-1.58;79.17
69855;BME280;57146;48.140;16.304;2023-03-01T02:42:02;100350.97;;;-1.53;79.88
69855;BME280;57146;48.140;16.304;2023-03-01T02:44:30;100345.44;;;-1.50;79.76
69855;BME280;57146;48.140;16.304;2023-03-01T02:47:01;100345.06;;;-1.47;79.98
69855;BME280;57146;48.140;16.304;2023-03-01T02:49:31;100347.47;;;-1.46;79.90
69855;BME280;57146;48.140;16.304;2023-03-01T02:54:47;100342.88;;;-1.43;80.00
69855;BME280;57146;48.140;16.304;2023-03-01T02:57:16;100335.50;;;-1.53;79.74
69855;BME280;57146;48.140;16.304;2023-03-01T02:59:45;100332.34;;;-1.49;79.97
69855;BME280;57146;48.140;16.304;2023-03-01T03:02:23;100343.09;;;-1.45;79.92
69855;BME280;57146;48.140;16.304;2023-03-01T03:04:52;100342.50;;;-1.40;80.33
69855;BME280;57146;48.140;16.304;2023-03-01T03:07:19;100341.31;;;-1.38;80.20
69855;BME280;57146;48.140;16.304;2023-03-01T03:09:48;100337.72;;;-1.37;80.82
69855;BME280;57146;48.140;16.304;2023-03-01T03:12:15;100339.53;;;-1.37;80.90
69855;BME280;57146;48.140;16.304;2023-03-01T03:14:42;100338.50;;;-1.43;80.80
69855;BME280;57146;48.140;16.304;2023-03-01T03:17:09;100326.63;;;-1.37;80.11
69855;BME280;57146;48.140;16.304;2023-03-01T03:19:36;100321.66;;;-1.32;80.46
69855;BME280;57146;48.140;16.304;2023-03-01T03:22:03;100330.59;;;-1.28;80.26
69855;BME280;57146;48.140;16.304;2023-03-01T03:24:31;100326.41;;;-1.29;80.11
69855;BME280;57146;48.140;16.304;2023-03-01T03:26:58;100319.66;;;-1.37;80.96
69855;BME280;57146;48.140;16.304;2023-03-01T03:29:25;100320.47;;;-1.30;80.78
69855;BME280;57146;48.140;16.304;2023-03-01T03:31:52;100317.28;;;-1.25;80.71
69855;BME280;57146;48.140;16.304;2023-03-01T03:34:19;100318.06;;;-1.25;80.47
69855;BME280;57146;48.140;16.304;2023-03-01T03:36:54;100316.91;;;-1.22;81.15
69855;BME280;57146;48.140;16.304;2023-03-01T03:39:26;100315.50;;;-1.25;80.81
69855;BME280;57146;48.140;16.304;2023-03-01T03:41:54;100320.88;;;-1.19;80.77
69855;BME280;57146;48.140;16.304;2023-03-01T03:44:21;100321.28;;;-1.16;80.57
69855;BME280;57146;48.140;16.304;2023-03-01T03:46:51;100319.91;;;-1.12;81.05
69855;BME280;57146;48.140;16.304;2023-03-01T03:49:18;100315.91;;;-1.14;80.83
69855;BME280;57146;48.140;16.304;2023-03-01T03:51:45;100315.13;;;-1.15;80.62
69855;BME280;57146;48.140;16.304;2023-03-01T03:54:12;100311.53;;;-1.14;80.93
69855;BME280;57146;48.140;16.304;2023-03-01T03:56:39;100310.16;;;-1.16;80.78
69855;BME280;57146;48.140;16.304;2023-03-01T03:59:07;100314.31;;;-1.15;80.15
69855;BME280;57146;48.140;16.304;2023-03-01T04:01:33;100314.13;;;-1.14;80.48
69855;BME280;57146;48.140;16.304;2023-03-01T04:04:00;100314.13;;;-1.14;80.40
69855;BME280;57146;48.140;16.304;2023-03-01T04:06:27;100317.91;;;-1.10;78.67
69855;BME280;57146;48.140;16.304;2023-03-01T04:08:56;100317.31;;;-1.05;77.94
69855;BME280;57146;48.140;16.304;2023-03-01T04:11:23;100308.19;;;-1.01;77.84
69855;BME280;57146;48.140;16.304;2023-03-01T04:13:52;100312.75;;;-0.97;78.01
69855;BME280;57146;48.140;16.304;2023-03-01T04:16:20;100310.97;;;-0.96;78.34
69855;BME280;57146;48.140;16.304;2023-03-01T04:18:47;100304.19;;;-0.97;78.86
69855;BME280;57146;48.140;16.304;2023-03-01T04:21:15;100312.97;;;-0.91;78.07
69855;BME280;57146;48.140;16.304;2023-03-01T04:23:42;100306.41;;;-0.94;78.78
69855;BME280;57146;48.140;16.304;2023-03-01T04:26:09;100309.75;;;-0.93;78.93
69855;BME280;57146;48.140;16.304;2023-03-01T04:28:38;100311.16;;;-0.91;78.25
69855;BME280;57146;48.140;16.304;2023-03-01T04:31:10;100314.75;;;-0.92;78.45
69855;BME280;57146;48.140;16.304;2023-03-01T04:33:41;100322.13;;;-0.89;78.16
69855;BME280;57146;48.140;16.304;2023-03-01T04:36:10;100318.91;;;-0.91;79.24
69855;BME280;57146;48.140;16.304;2023-03-01T04:38:39;100309.78;;;-0.87;79.47
69855;BME280;57146;48.140;16.304;2023-03-01T04:41:09;100311.78;;;-0.89;79.22
69855;BME280;57146;48.140;16.304;2023-03-01T04:43:37;100313.75;;;-0.84;79.09
69855;BME280;57146;48.140;16.304;2023-03-01T04:46:06;100310.97;;;-0.83;79.12
69855;BME280;57146;48.140;16.304;2023-03-01T04:48:39;100298.25;;;-0.84;78.81
69855;BME280;57146;48.140;16.304;2023-03-01T04:51:06;100310.16;;;-0.83;78.20
69855;BME280;57146;48.140;16.304;2023-03-01T04:53:35;100311.75;;;-0.82;79.03
69855;BME280;57146;48.140;16.304;2023-03-01T04:56:03;100310.56;;;-0.80;79.27
69855;BME280;57146;48.140;16.304;2023-03-01T04:58:30;100317.75;;;-0.82;79.34
69855;BME280;57146;48.140;16.304;2023-03-01T05:00:57;100326.06;;;-0.80;79.21
69855;BME280;57146;48.140;16.304;2023-03-01T05:03:24;100324.09;;;-0.78;77.91
69855;BME280;57146;48.140;16.304;2023-03-01T05:05:52;100329.66;;;-0.74;78.02
69855;BME280;57146;48.140;16.304;2023-03-01T05:08:19;100338.81;;;-0.72;78.53
69855;BME280;57146;48.140;16.304;2023-03-01T05:10:51;100340.59;;;-0.72;78.80
69855;BME280;57146;48.140;16.304;2023-03-01T05:13:21;100334.25;;;-0.69;79.23
69855;BME280;57146;48.140;16.304;2023-03-01T05:15:53;100328.28;;;-0.70;79.59
69855;BME280;57146;48.140;16.304;2023-03-01T05:18:20;100334.03;;;-0.68;79.33
69855;BME280;57146;48.140;16.304;2023-03-01T05:20:47;100328.84;;;-0.68;79.38
69855;BME280;57146;48.140;16.304;2023-03-01T05:23:14;100329.25;;;-0.64;79.25
69855;BME280;57146;48.140;16.304;2023-03-01T05:25:41;100334.81;;;-0.61;79.41
69855;BME280;57146;48.140;16.304;2023-03-01T05:28:11;100336.63;;;-0.61;79.29
69855;BME280;57146;48.140;16.304;2023-03-01T05:30:39;100338.63;;;-0.63;78.92
69855;BME280;57146;48.140;16.304;2023-03-01T05:33:06;100331.25;;;-0.60;77.96
69855;BME280;57146;48.140;16.304;2023-03-01T05:35:33;100336.03;;;-0.57;78.43
69855;BME280;57146;48.140;16.304;2023-03-01T05:38:00;100334.81;;;-0.54;78.12
69855;BME280;57146;48.140;16.304;2023-03-01T05:40:27;100339.00;;;-0.53;78.34
69855;BME280;57146;48.140;16.304;2023-03-01T05:42:56;100342.56;;;-0.54;78.86
69855;BME280;57146;48.140;16.304;2023-03-01T05:45:25;100336.22;;;-0.58;79.58
69855;BME280;57146;48.140;16.304;2023-03-01T05:47:53;100345.16;;;-0.61;79.89
69855;BME280;57146;48.140;16.304;2023-03-01T05:50:23;100342.97;;;-0.57;79.58
69855;BME280;57146;48.140;16.304;2023-03-01T05:52:59;100341.78;;;-0.55;78.51
69855;BME280;57146;48.140;16.304;2023-03-01T05:55:28;100345.16;;;-0.54;79.18
69855;BME280;57146;48.140;16.304;2023-03-01T05:57:58;100348.75;;;-0.55;79.47
69855;BME280;57146;48.140;16.304;2023-03-01T06:00:25;100356.72;;;-0.57;79.84
69855;BME280;57146;48.140;16.304;2023-03-01T06:02:54;100358.69;;;-0.59;80.41
69855;BME280;57146;48.140;16.304;2023-03-01T06:05:21;100360.88;;;-0.62;78.84
69855;BME280;57146;48.140;16.304;2023-03-01T06:07:49;100361.09;;;-0.64;78.66
69855;BME280;57146;48.140;16.304;2023-03-01T06:10:18;100359.88;;;-0.61;78.51
69855;BME280;57146;48.140;16.304;2023-03-01T06:12:47;100360.50;;;-0.59;79.67
69855;BME280;57146;48.140;16.304;2023-03-01T06:15:16;100361.91;;;-0.57;78.95
69855;BME280;57146;48.140;16.304;2023-03-01T06:17:45;100359.09;;;-0.49;79.49
69855;BME280;57146;48.140;16.304;2023-03-01T06:20:13;100351.91;;;-0.46;79.24
69855;BME280;57146;48.140;16.304;2023-03-01T06:22:41;100345.94;;;-0.47;79.57
69855;BME280;57146;48.140;16.304;2023-03-01T06:25:09;100347.34;;;-0.51;78.29
69855;BME280;57146;48.140;16.304;2023-03-01T06:27:36;100344.38;;;-0.41;79.04
69855;BME280;57146;48.140;16.304;2023-03-01T06:30:06;100347.34;;;-0.38;79.21
69855;BME280;57146;48.140;16.304;2023-03-01T06:32:33;100346.34;;;-0.37;77.36
69855;BME280;57146;48.140;16.304;2023-03-01T06:35:00;100341.97;;;-0.36;77.94
69855;BME280;57146;48.140;16.304;2023-03-01T06:37:26;100348.94;;;-0.37;78.20
69855;BME280;57146;48.140;16.304;2023-03-01T06:39:53;100351.72;;;-0.32;78.58
69855;BME280;57146;48.140;16.304;2023-03-01T06:42:20;100349.94;;;-0.31;77.96
69855;BME280;57146;48.140;16.304;2023-03-01T06:44:48;100359.88;;;-0.28;77.72
69855;BME280;57146;48.140;16.304;2023-03-01T06:47:39;100356.88;;;-0.25;77.30
69855;BME280;57146;48.140;16.304;2023-03-01T06:50:30;100359.84;;;-0.21;77.23
69855;BME280;57146;48.140;16.304;2023-03-01T06:53:22;100354.09;;;-0.23;77.12
69855;BME280;57146;48.140;16.304;2023-03-01T06:55:57;100361.84;;;-0.23;76.82
69855;BME280;57146;48.140;16.304;2023-03-01T06:58:26;100366.22;;;-0.17;77.26
69855;BME280;57146;48.140;16.304;2023-03-01T07:00:53;100366.63;;;-0.14;76.11
69855;BME280;57146;48.140;16.304;2023-03-01T07:03:20;100370.00;;;-0.13;76.18
69855;BME280;57146;48.140;16.304;2023-03-01T07:05:50;100368.78;;;-0.11;76.22
69855;BME280;57146;48.140;16.304;2023-03-01T07:08:18;100367.81;;;-0.10;76.21
69855;BME280;57146;48.140;16.304;2023-03-01T07:10:45;100364.22;;;-0.09;75.96
69855;BME280;57146;48.140;16.304;2023-03-01T07:13:12;100359.44;;;-0.05;77.01
69855;BME280;57146;48.140;16.304;2023-03-01T07:15:42;100361.78;;;-0.04;75.98
69855;BME280;57146;48.140;16.304;2023-03-01T07:18:09;100362.00;;;-0.05;77.53
69855;BME280;57146;48.140;16.304;2023-03-01T07:20:36;100350.47;;;-0.03;78.27
69855;BME280;57146;48.140;16.304;2023-03-01T07:23:05;100355.03;;;0.02;77.49
69855;BME280;57146;48.140;16.304;2023-03-01T07:25:32;100352.44;;;0.02;76.13
69855;BME280;57146;48.140;16.304;2023-03-01T07:28:01;100361.38;;;0.06;75.97
69855;BME280;57146;48.140;16.304;2023-03-01T07:30:28;100360.97;;;0.09;76.89
69855;BME280;57146;48.140;16.304;2023-03-01T07:33:21;100368.94;;;0.14;75.81
69855;BME280;57146;48.140;16.304;2023-03-01T07:35:56;100358.38;;;0.16;76.01
69855;BME280;57146;48.140;16.304;2023-03-01T07:38:23;100365.53;;;0.14;75.86
69855;BME280;57146;48.140;16.304;2023-03-01T07:40:51;100359.78;;;0.12;75.79
69855;BME280;57146;48.140;16.304;2023-03-01T07:43:19;100361.75;;;0.16;74.54
69855;BME280;57146;48.140;16.304;2023-03-01T07:45:46;100359.38;;;0.21;75.24
69855;BME280;57146;48.140;16.304;2023-03-01T07:48:13;100356.19;;;0.19;75.39
69855;BME280;57146;48.140;16.304;2023-03-01T07:50:40;100353.38;;;0.21;75.28
69855;BME280;57146;48.140;16.304;2023-03-01T07:53:08;100361.13;;;0.28;75.58
69855;BME280;57146;48.140;16.304;2023-03-01T07:55:36;100363.13;;;0.32;74.74
69855;BME280;57146;48.140;16.304;2023-03-01T07:58:03;100362.91;;;0.34;74.72
69855;BME280;57146;48.140;16.304;2023-03-01T08:00:30;100361.47;;;0.38;74.25
69855;BME280;57146;48.140;16.304;2023-03-01T08:03:00;100358.88;;;0.38;73.86
69855;BME280;57146;48.140;16.304;2023-03-01T08:05:28;100360.28;;;0.40;74.34
69855;BME280;57146;48.140;16.304;2023-03-01T08:07:58;100354.84;;;0.48;73.65
69855;BME280;57146;48.140;16.304;2023-03-01T08:10:52;100366.19;;;0.54;73.87
69855;BME280;57146;48.140;16.304;2023-03-01T08:13:22;100358.03;;;0.57;73.64
69855;BME280;57146;48.140;16.304;2023-03-01T08:15:49;100358.19;;;0.62;73.63
69855;BME280;57146;48.140;16.304;2023-03-01T08:18:17;100360.53;;;0.70;73.33
69855;BME280;57146;48.140;16.304;2023-03-01T08:20:45;100358.53;;;0.73;72.04
69855;BME280;57146;48.140;16.304;2023-03-01T08:23:15;100354.72;;;0.75;73.46
69855;BME280;57146;48.140;16.304;2023-03-01T08:25:42;100352.06;;;0.82;72.66
69855;BME280;57146;48.140;16.304;2023-03-01T08:28:09;100349.44;;;0.88;73.88
69855;BME280;57146;48.140;16.304;2023-03-01T08:30:36;100356.63;;;0.93;73.68
69855;BME280;57146;48.140;16.304;2023-03-01T08:33:03;100360.38;;;0.97;74.60
69855;BME280;57146;48.140;16.304;2023-03-01T08:35:30;100354.56;;;1.02;74.17
69855;BME280;57146;48.140;16.304;2023-03-01T08:37:57;100355.31;;;1.09;74.00
69855;BME280;57146;48.140;16.304;2023-03-01T08:40:24;100353.28;;;1.17;73.51
69855;BME280;57146;48.140;16.304;2023-03-01T08:42:51;100353.00;;;1.26;73.19
69855;BME280;57146;48.140;16.304;2023-03-01T08:45:19;100341.88;;;1.18;72.21
69855;BME280;57146;48.140;16.304;2023-03-01T08:47:47;100337.38;;;1.07;72.21
69855;BME280;57146;48.140;16.304;2023-03-01T08:50:17;100332.75;;;1.09;73.17
69855;BME280;57146;48.140;16.304;2023-03-01T08:52:44;100326.69;;;1.22;73.26
69855;BME280;57146;48.140;16.304;2023-03-01T08:55:11;100325.63;;;1.30;72.49
69855;BME280;57146;48.140;16.304;2023-03-01T08:57:38;100325.16;;;1.39;71.41
69855;BME280;57146;48.140;16.304;2023-03-01T09:00:05;100321.47;;;1.47;71.85
69855;BME280;57146;48.140;16.304;2023-03-01T09:02:33;100323.84;;;1.49;71.08
69855;BME280;57146;48.140;16.304;2023-03-01T09:05:00;100326.19;;;1.57;71.13
69855;BME280;57146;48.140;16.304;2023-03-01T09:07:27;100320.50;;;1.66;71.68
69855;BME280;57146;48.140;16.304;2023-03-01T09:09:54;100315.88;;;1.68;70.58
69855;BME280;57146;48.140;16.304;2023-03-01T09:12:22;100313.28;;;1.68;70.39
69855;BME280;57146;48.140;16.304;2023-03-01T09:14:49;100312.44;;;1.75;70.38
69855;BME280;57146;48.140;16.304;2023-03-01T09:17:16;100307.16;;;1.63;69.32
69855;BME280;57146;48.140;16.304;2023-03-01T09:19:43;100310.91;;;1.67;69.65
69855;BME280;57146;48.140;16.304;2023-03-01T09:22:34;100311.19;;;1.77;70.00
69855;BME280;57146;48.140;16.304;2023-03-01T09:25:01;100303.34;;;1.84;69.50
69855;BME280;57146;48.140;16.304;2023-03-01T09:27:29;100298.50;;;1.87;69.35
69855;BME280;57146;48.140;16.304;2023-03-01T09:29:56;100298.66;;;1.92;68.36
69855;BME280;57146;48.140;16.304;2023-03-01T09:32:23;100297.84;;;1.92;68.60
69855;BME280;57146;48.140;16.304;2023-03-01T09:34:50;100288.63;;;1.96;68.63
69855;BME280;57146;48.140;16.304;2023-03-01T09:37:16;100289.34;;;2.03;69.13
69855;BME280;57146;48.140;16.304;2023-03-01T09:39:44;100287.31;;;2.05;68.29
69855;BME280;57146;48.140;16.304;2023-03-01T09:42:12;100285.44;;;2.12;69.24
69855;BME280;57146;48.140;16.304;2023-03-01T09:44:54;100281.19;;;2.18;67.86
69855;BME280;57146;48.140;16.304;2023-03-01T09:47:27;100276.53;;;2.20;65.97
69855;BME280;57146;48.140;16.304;2023-03-01T09:50:20;100273.50;;;2.23;65.91
69855;BME280;57146;48.140;16.304;2023-03-01T09:53:02;100275.47;;;2.28;65.51
69855;BME280;57146;48.140;16.304;2023-03-01T09:56:00;100274.22;;;2.30;66.48
69855;BME280;57146;48.140;16.304;2023-03-01T10:01:50;100269.28;;;2.40;66.01
69855;BME280;57146;48.140;16.304;2023-03-01T10:09:39;100260.50;;;2.53;66.41
69855;BME280;57146;48.140;16.304;2023-03-01T10:12:35;100246.25;;;2.56;65.13
69855;BME280;57146;48.140;16.304;2023-03-01T10:17:41;100245.03;;;2.58;64.58
69855;BME280;57146;48.140;16.304;2023-03-01T10:20:18;100238.94;;;2.64;65.41
69855;BME280;57146;48.140;16.304;2023-03-01T10:22:46;100244.84;;;2.72;65.02
69855;BME280;57146;48.140;16.304;2023-03-01T10:25:14;100242.94;;;2.79;64.80
69855;BME280;57146;48.140;16.304;2023-03-01T10:27:51;100242.25;;;2.83;64.93
69855;BME280;57146;48.140;16.304;2023-03-01T10:32:49;100241.00;;;2.98;64.63
69855;BME280;57146;48.140;16.304;2023-03-01T10:35:20;100227.13;;;3.04;65.23
69855;BME280;57146;48.140;16.304;2023-03-01T10:40:32;100223.25;;;3.18;65.29
69855;BME280;57146;48.140;16.304;2023-03-01T10:43:03;100218.50;;;3.15;63.86
69855;BME280;57146;48.140;16.304;2023-03-01T10:45:34;100211.94;;;3.12;63.84
69855;BME280;57146;48.140;16.304;2023-03-01T10:50:33;100207.53;;;3.25;63.74
69855;BME280;57146;48.140;16.304;2023-03-01T10:53:04;100196.22;;;3.31;63.94
69855;BME280;57146;48.140;16.304;2023-03-01T10:55:35;100195.28;;;3.37;63.60
69855;BME280;57146;48.140;16.304;2023-03-01T10:58:17;100189.19;;;3.43;62.49
69855;BME280;57146;48.140;16.304;2023-03-01T11:00:59;100182.22;;;3.60;62.63
69855;BME280;57146;48.140;16.304;2023-03-01T11:03:34;100177.13;;;3.66;63.67
69855;BME280;57146;48.140;16.304;2023-03-01T11:08:42;100170.19;;;3.71;62.89
69855;BME280;57146;48.140;16.304;2023-03-01T11:11:23;100162.28;;;3.66;61.71
69855;BME280;57146;48.140;16.304;2023-03-01T11:13:56;100160.25;;;3.68;63.10
69855;BME280;57146;48.140;16.304;2023-03-01T11:16:44;100159.53;;;3.73;62.38
69855;BME280;57146;48.140;16.304;2023-03-01T11:24:46;100161.59;;;3.99;61.58
69855;BME280;57146;48.140;16.304;2023-03-01T11:27:38;100161.34;;;4.01;61.97
69855;BME280;57146;48.140;16.304;2023-03-01T11:33:35;100162.31;;;4.12;62.39
69855;BME280;57146;48.140;16.304;2023-03-01T11:36:13;100152.22;;;4.15;61.30
69855;BME280;57146;48.140;16.304;2023-03-01T11:38:43;100154.13;;;4.20;61.98
69855;BME280;57146;48.140;16.304;2023-03-01T11:41:20;100157.91;;;4.29;62.31
69855;BME280;57146;48.140;16.304;2023-03-01T11:44:14;100159.47;;;4.30;60.95
69855;BME280;57146;48.140;16.304;2023-03-01T11:47:30;100164.47;;;4.31;61.90
69855;BME280;57146;48.140;16.304;2023-03-01T12:12:47;100144.94;;;4.68;61.67
69855;BME280;57146;48.140;16.304;2023-03-01T12:18:52;100153.25;;;4.82;61.23
69855;BME280;57146;48.140;16.304;2023-03-01T12:32:54;100131.72;;;4.91;60.66
69855;BME280;57146;48.140;16.304;2023-03-01T12:38:42;100129.72;;;4.98;60.60
69855;BME280;57146;48.140;16.304;2023-03-01T12:41:29;100122.38;;;4.95;60.54
69855;BME280;57146;48.140;16.304;2023-03-01T12:44:28;100115.88;;;4.98;60.51
69855;BME280;57146;48.140;16.304;2023-03-01T12:47:23;100121.66;;;5.00;60.07
69855;BME280;57146;48.140;16.304;2023-03-01T12:50:05;100119.81;;;5.00;61.10
69855;BME280;57146;48.140;16.304;2023-03-01T12:52:46;100112.59;;;5.08;61.53
69855;BME280;57146;48.140;16.304;2023-03-01T12:55:35;100110.78;;;5.08;60.73
69855;BME280;57146;48.140;16.304;2023-03-01T13:01:08;100085.28;;;5.15;60.59
69855;BME280;57146;48.140;16.304;2023-03-01T13:04:20;100078.88;;;5.23;60.71
69855;BME280;57146;48.140;16.304;2023-03-01T13:26:09;100071.59;;;5.52;60.19
69855;BME280;57146;48.140;16.304;2023-03-01T13:28:54;100068.25;;;5.57;60.56
69855;BME280;57146;48.140;16.304;2023-03-01T13:33:52;100060.53;;;5.72;59.82
69855;BME280;57146;48.140;16.304;2023-03-01T13:39:00;100059.44;;;5.63;60.18
69855;BME280;57146;48.140;16.304;2023-03-01T13:41:51;100061.50;;;5.61;60.01
69855;BME280;57146;48.140;16.304;2023-03-01T13:44:36;100065.94;;;5.60;60.12
69855;BME280;57146;48.140;16.304;2023-03-01T13:49:48;100061.97;;;5.58;60.43
69855;BME280;57146;48.140;16.304;2023-03-01T13:53:09;100055.47;;;5.60;60.28
69855;BME280;57146;48.140;16.304;2023-03-01T13:55:41;100044.78;;;5.62;60.71
69855;BME280;57146;48.140;16.304;2023-03-01T13:58:21;100045.88;;;5.66;60.80
69855;BME280;57146;48.140;16.304;2023-03-01T14:04:38;100033.41;;;5.73;60.74
69855;BME280;57146;48.140;16.304;2023-03-01T14:07:54;100027.91;;;5.74;60.92
69855;BME280;57146;48.140;16.304;2023-03-01T14:10:21;100029.53;;;5.81;61.85
69855;BME280;57146;48.140;16.304;2023-03-01T14:12:57;100021.94;;;5.79;60.79
69855;BME280;57146;48.140;16.304;2023-03-01T14:19:01;100016.72;;;5.79;61.13
69855;BME280;57146;48.140;16.304;2023-03-01T14:21:32;100017.22;;;5.76;60.85
69855;BME280;57146;48.140;16.304;2023-03-01T14:24:00;100015.91;;;5.73;61.43
69855;BME280;57146;48.140;16.304;2023-03-01T14:26:27;100011.19;;;5.75;61.03
69855;BME280;57146;48.140;16.304;2023-03-01T14:28:54;100009.09;;;5.72;60.82
69855;BME280;57146;48.140;16.304;2023-03-01T14:31:34;100008.00;;;5.68;61.26
69855;BME280;57146;48.140;16.304;2023-03-01T14:34:20;100007.00;;;5.69;61.02
69855;BME280;57146;48.140;16.304;2023-03-01T14:36:49;100009.09;;;5.72;61.48
69855;BME280;57146;48.140;16.304;2023-03-01T14:39:19;100009.63;;;5.74;62.03
69855;BME280;57146;48.140;16.304;2023-03-01T14:41:50;100000.22;;;5.73;61.97
69855;BME280;57146;48.140;16.304;2023-03-01T14:44:22;100008.31;;;5.72;61.96
69855;BME280;57146;48.140;16.304;2023-03-01T14:46:55;100011.47;;;5.74;61.86
69855;BME280;57146;48.140;16.304;2023-03-01T14:49:30;100008.59;;;5.75;62.02
69855;BME280;57146;48.140;16.304;2023-03-01T14:52:03;100003.91;;;5.78;62.13
69855;BME280;57146;48.140;16.304;2023-03-01T14:54:43;100005.47;;;5.79;61.53
69855;BME280;57146;48.140;16.304;2023-03-01T14:57:23;100001.81;;;5.80;61.93
69855;BME280;57146;48.140;16.304;2023-03-01T14:59:55;100003.16;;;5.82;62.20
69855;BME280;57146;48.140;16.304;2023-03-01T15:02:51;99994.53;;;5.82;61.75
69855;BME280;57146;48.140;16.304;2023-03-01T15:05:33;100001.31;;;5.83;61.96
69855;BME280;57146;48.140;16.304;2023-03-01T15:08:02;100001.81;;;5.80;62.18
69855;BME280;57146;48.140;16.304;2023-03-01T15:10:33;99995.03;;;5.79;62.80